Gabo Island, Victoria

5:00 PM AEDT on December 18, 2014 (GMT +1100)
Main Wharf, Mallacoota, Vic, Australia | Change Station
CLOSE
Current Station
Personal Weather Station
Location: Mallacoota, VICTORIA
Elevation: 29 ft
Nearby Weather Stations

Elev 29 ft 37.55 °S, 149.76 °E | Updated 5 seconds ago

Clear
Clear
69.1 °F
Feels Like 69.1 °F
N
0.0
Wind Variable Wind from South
Gusts 2.0 mph

Today
High -- | Low -- °F
--% Chance of Precip.
Yesterday
High -- | Low -- °F
Precip. -- in
5:34 AM 8:19 PM
Waning Crescent, 17% visible
Pressure 29.65 in
Visibility 6.2 miles
Clouds
Dew Point 56 °F
Humidity 65%
Rainfall 0.00 in
Snow Depth Not available.
UV Not available.
Pollen Not available.
Air Quality Not available.
Flu Activity Not available.
METAR YMER 180500Z AUTO 04012KT 9999 // NCD 23/17 Q1004

More Conditions Fewer Conditions

Pressure 29.65 in
Visibility 6.2 miles
Clouds
Dew Point 56 °F
Humidity 65%
Rainfall 0.00 in
Snow Depth Not available.
UV Not available.
Pollen Not available.
Air Quality Not available.
Flu Activity Not available.
METAR YMER 180500Z AUTO 04012KT 9999 // NCD 23/17 Q1004

More Conditions Fewer Conditions

10-Day Weather Forecast

Almanac

Astronomy

Dec. 18, 2014 Rise Set
Actual Time
Civil Twilight
Nautical Twilight
Astronomical Twilight
Moon
Length of Visible Light
Length of Day
Tomorrow will be .
, % of the Moon is Illuminated

Today's Extremes

Country Highs Country Lows

Community

WunderPhotos

Upload Photos

1,778,896 photos uploaded!

WunderBlogs® & News

Nearby

Air Quality

  Air Quality AQ Index Pollutant
Not available.

Snow Depth

Station Depth Elevation

Earthquake Activity

City Distance Mag. Time & Date
Minimum magnitude displayed is 2.5.

Coastal Water Temperatures

Place Temperature

Nearby Weather Stations